Stinson Beach, California
Current Conditions -  °F | °C
As of 1:15 PM on Friday 24 Oct 2014 (Local Time) from KDVO Reporting Station
Clear Clear  
Wind Chill: 70°   Ceiling: Unl
Heat Index: 70°   Visibility: NA
Dew Point: 54°   Wind: 3mph
Humidity: 56%   Direction: 120°ESE
Pressure: 29.93"   Gusts: NA
Location:  37.9°N, 122.64°W
Report Text: KDVO 242015Z AUTO 12003KT CLR 21/12 A2993 RMK AO2
Loading
Personal Weather Stations






























Interactive Weather Map
Tropical Storm Tracking
New forecast layout! Learn more

10-Day Weather Forecast

Advertisements
Track Severe Weather on mobile